x

Tanner Bank - 121nm West Of San Diego, Ca (46047) Wave Buoy

2:50am - Mon 20th Oct 2014 All times are PDT. -7 hours from GMT.

  • Sig Wave height 4.6ft
  • Swell Direction
  • Peak Period 10s
  • Average Period 6s
  • Wind
    13mph, 18mph gusts
  • Sea Temp 69°f
  • 空気 Temp 67°f
  • Sea Pressure 1012.9mb
  • Tanner Bank - 121nm West Of San Diego, Ca
  • Tanner Bank - 121nm West Of San Diego, Ca

More Historic Weather Station data

Upgrade to MSW Pro to gain access to the past 30 days of data for over 8000 Wavebouys and Weather Stations around the globe.

Join Pro

Comparision Forecast

View Surf forecast
   
Mon 10/20 2:50am 4.5ft 10s 6s 13 18 mph 1012.9mb 69f 67f
1:50am 5ft 10s 7s 13 16 mph 1013.1mb 69f 67f
12:50am 5.5ft 11s 7s 11 13 mph 1012.9mb 70f 67f
Sun 10/19 11:50pm 5ft 11s 7s 11 13 mph 1012.9mb 69f 67f
10:50pm 5ft 11s 7s 13 18 mph 1012.8mb 69f 67f
9:50pm 5ft 11s  -  13 18 mph 1012.7mb 69f 67f
7:50pm 6ft 11s 7s 16 18 mph 1011.9mb 69f 66f
6:50pm 5.5ft 11s 7s 16 18 mph 1011.6mb 69f 67f
5:50pm 5ft 11s 7s 13 16 mph 1011.3mb 69f 67f
4:50pm 5.5ft 9s 8s 13 16 mph 1011.4mb 69f 67f
3:50pm 5ft 12s 8s 13 16 mph 1011.8mb 69f 67f
2:50pm 6ft 12s 8s 11 13 mph 1012.2mb 69f 67f
1:50pm 5.5ft 10s 8s 11 13 mph 1012.7mb 69f 67f
12:50pm 6ft 12s 8s 9 11 mph 1013.4mb 69f 67f
11:50am 6ft 12s 8s 11
mph
1013.6mb 69f 67f
10:50am 6ft 11s 8s 11 13 mph 1013.6mb 69f 67f
9:50am 7ft 12s 8s 11 13 mph 1013.6mb 69f 67f
8:50am 6ft 10s 8s 11
mph
1012.9mb 68f 67f
7:50am 7ft 11s 8s 11 16 mph 1012.5mb 68f 67f
6:50am 7.5ft 11s 9s 13 16 mph 1011.9mb 68f 67f
5:50am 6.5ft 11s 8s 13 18 mph 1011.8mb 68f 67f
4:50am 7ft 11s 8s 13 18 mph 1011.4mb 68f 67f
3:50am 6ft 11s 8s 13 18 mph 1011.2mb 68f 67f
2:50am 6ft 12s 8s 11 13 mph 1011.9mb 68f 67f
1:50am 6ft 11s 8s 13 16 mph 1012.1mb 69f 67f
12:50am 6ft 11s 7s 13 16 mph 1012.2mb 69f 67f
Sat 10/18 11:50pm 5.5ft 11s 7s 13 16 mph 1012.3mb 69f 67f
10:50pm 5ft 12s 7s 11 13 mph 1012.5mb 69f 67f
9:50pm 5ft 11s 7s 13 16 mph 1012.5mb 69f 67f
8:50pm 6ft 12s 8s 13 16 mph 1012.1mb 69f 67f
7:50pm 5.5ft 12s 7s 13 18 mph 1011.6mb 69f 67f
6:50pm 6.5ft 11s 8s 13 16 mph 1011.4mb 69f 67f
5:50pm 6ft 12s 8s 13 16 mph 1011.3mb 69f 67f
4:50pm 6.5ft 12s 8s 11 13 mph 1011.4mb 69f 68f
3:50pm 7ft 11s 8s 13 16 mph 1011.9mb 69f 68f
2:50pm 6ft 11s 8s 13 16 mph 1012.3mb 69f 68f
1:50pm 5.5ft 11s 8s 11 13 mph 1012.8mb 69f 67f
12:50pm 5ft 12s 7s 11 13 mph 1013.4mb 69f 67f
11:50am 5ft 12s 7s 13 16 mph 1013.9mb 69f 67f
10:50am 4.5ft 12s 7s 13 16 mph 1014.3mb 68f 67f
9:50am 4ft 14s 6s 13 16 mph 1014.5mb 68f 67f
8:50am 4.5ft 11s 6s 13 16 mph 1014.5mb 68f 67f
7:50am 4ft 13s 6s 13 16 mph 1014.2mb 68f 67f
6:50am 4ft 12s 6s 13 16 mph 1013.9mb 68f 67f
5:50am 4ft 12s 6s 11 13 mph 1013.8mb 68f 67f
4:50am 4.5ft 12s 7s 13 16 mph 1013.5mb 68f 67f
3:50am 4ft 14s 6s 11 16 mph 1013.5mb 68f 67f
2:50am 4ft 12s 6s 13 16 mph 1013.9mb 68f 67f
1:50am 4.5ft 12s 7s 13 16 mph 1014.4mb 69f 67f
12:50am 4.5ft 13s 7s 13 16 mph 1014.7mb 69f 66f
Fri 10/17 11:50pm 4.5ft 11s 6s 13 16 mph 1015mb 69f 66f
10:50pm 5ft 13s 7s 11 16 mph 1015.2mb 69f 66f
9:50pm 5ft 11s 7s 11 13 mph 1015.2mb 69f 66f
8:50pm 5ft 13s 7s 13 16 mph 1014.8mb 69f 66f
7:50pm 5.5ft 11s 7s 11 13 mph 1014.7mb 69f 66f
6:50pm 6ft 14s 8s 13 16 mph 1014.4mb 69f 66f
5:50pm 6ft 13s 8s 13 16 mph 1014.3mb 69f 67f
4:50pm 5.5ft 13s 7s 13 16 mph 1014.4mb 69f 67f
3:50pm 7ft 13s 8s 13 16 mph 1014.6mb 70f 67f
2:50pm 7ft 13s 9s 13 18 mph 1014.7mb 70f 67f
1:50pm 6.5ft 13s 9s 13 18 mph 1015.1mb 70f 67f
12:50pm 7ft 13s 9s 13 16 mph 1015.9mb 70f 66f
11:50am 7.5ft 13s 9s 11 13 mph 1016.4mb 70f 66f
10:50am 7.5ft 14s 9s 9 13 mph 1016.3mb 70f 66f
9:50am 7.5ft 12s 8s 9 11 mph 1015.8mb 69f 66f
8:50am 7.5ft 14s 9s 9 11 mph 1015.6mb 69f 66f
7:50am 8.5ft 14s 9s 13 16 mph 1015mb 69f 66f
6:50am 8ft 12s 8s 13 18 mph 1014.6mb 69f 65f
5:50am 9ft 13s 9s 16 18 mph 1014.5mb 69f 65f
4:50am 8ft 14s 9s 13 18 mph 1014.4mb 69f 65f
3:50am 8ft 15s 9s 13 16 mph 1014.4mb 69f 65f
2:50am 9ft 15s 9s 13 18 mph 1014.4mb 69f 65f
1:50am 8.5ft 14s 9s 16 20 mph 1014.6mb 69f 66f
12:50am 9.5ft 15s 9s 13 18 mph 1014.9mb 69f 66f
Thu 10/16 11:50pm 9ft 15s 9s 13 18 mph 1015.1mb 70f 66f
10:50pm 8ft 12s 9s 13 18 mph 1014.9mb 70f 66f
9:50pm 9.5ft 12s 10s 13 16 mph 1014.8mb 70f 66f
8:50pm 10ft 14s 10s 11 16 mph 1014.8mb 70f 66f
7:50pm 9ft 16s 10s 13 16 mph 1014.7mb 70f 66f
6:50pm 9ft 15s 10s 13 16 mph 1014.3mb 70f 66f
5:50pm 10ft 14s 10s 13 18 mph 1014.1mb 70f 67f
4:50pm 10ft 14s 11s 13 18 mph 1014.2mb 70f 67f
3:50pm 9ft 16s 11s 13 16 mph 1014.8mb 70f 67f
2:50pm 8.5ft 14s 10s 9 13 mph 1015.1mb 69f 66f
1:50pm 8.5ft 15s 10s 9 13 mph 1015.7mb 69f 67f
12:50pm 9ft 12s 10s 11 13 mph 1016.4mb 69f 67f
11:50am 8ft 13s 10s 11 13 mph 1017mb 69f 67f
10:50am 7ft 13s 10s 9 11 mph 1017.3mb 69f 67f